Time;durP1;ratioP1;P1;durP2;ratioP2;P2;SDS_P1;SDS_P2;PMS_P1;PMS_P2;Temp;Humidity;BMP_temperature;BMP_pressure;BME280_temperature;BME280_humidity;BME280_pressure;Samples;Min_cycle;Max_cycle;Signal;HPM_P1;HPM_P2
2021/11/15 00:01:21;;;;;;;17.4;10.7;;;;;;;6.25;96.56348;940.2857;;;;
2021/11/15 00:03:59;;;;;;;14.9;9.3;;;;;;;6.25;96.29199;940.1758;;;;
2021/11/15 00:06:24;;;;;;;14.6;8.9;;;;;;;6.28;96.30957;940.1552;;;;
2021/11/15 00:14:23;;;;;;;13.7;8.6;;;;;;;5.94;97.24902;940.1653;;;;
2021/11/15 00:16:50;;;;;;;14.9;9.1;;;;;;;5.63;98.88379;940.1277;;;;
2021/11/15 00:19:21;;;;;;;17;9.9;;;;;;;5.65;99.52051;940.1711;;;;
2021/11/15 00:24:38;;;;;;;18.4;10.2;;;;;;;5.58;99.94336;940.1139;;;;
2021/11/15 00:27:03;;;;;;;19.3;10.7;;;;;;;5.64;99.87891;940.0783;;;;
2021/11/15 00:29:34;;;;;;;17.5;10.2;;;;;;;5.61;99.47754;940.1074;;;;
2021/11/15 00:31:59;;;;;;;15.3;9.3;;;;;;;5.55;99.9707;940.1083;;;;
2021/11/15 00:34:24;;;;;;;14.1;8.7;;;;;;;5.55;100;940.1248;;;;
2021/11/15 00:36:56;;;;;;;16.4;9.1;;;;;;;5.52;99.81836;940.0719;;;;
2021/11/15 00:39:28;;;;;;;14.1;8.5;;;;;;;5.53;99.54883;940.0715;;;;
2021/11/15 00:41:59;;;;;;;13.1;7.8;;;;;;;5.4;99.61914;940.0826;;;;
2021/11/15 00:44:32;;;;;;;14.3;8;;;;;;;5.23;100;940.0701;;;;
2021/11/15 00:46:57;;;;;;;11.7;7.4;;;;;;;5.12;100;940.0634;;;;
2021/11/15 00:49:28;;;;;;;13.5;8.2;;;;;;;5.19;100;940.019;;;;
2021/11/15 00:52:00;;;;;;;12.8;7.3;;;;;;;5.12;100;940.0642;;;;
2021/11/15 00:54:28;;;;;;;14;7.7;;;;;;;5.07;100;940.0981;;;;
2021/11/15 00:56:53;;;;;;;13.6;8.1;;;;;;;5.09;100;940.0883;;;;
2021/11/15 00:59:21;;;;;;;12.9;7.6;;;;;;;5.09;100;940.1435;;;;
2021/11/15 01:01:46;;;;;;;12.4;7.5;;;;;;;5.08;100;940.1141;;;;
2021/11/15 01:04:17;;;;;;;12.9;6.7;;;;;;;4.94;100;940.1306;;;;
2021/11/15 01:06:43;;;;;;;11.6;6.6;;;;;;;5.02;100;940.1169;;;;
2021/11/15 01:09:08;;;;;;;14.7;6.7;;;;;;;4.98;100;940.1841;;;;
2021/11/15 01:11:33;;;;;;;10.4;6.4;;;;;;;4.95;100;940.0778;;;;
2021/11/15 01:14:05;;;;;;;12.8;6.5;;;;;;;4.91;100;940.037;;;;
2021/11/15 01:16:39;;;;;;;10.3;6;;;;;;;4.89;100;940.1156;;;;
2021/11/15 01:19:05;;;;;;;8.8;5.7;;;;;;;4.8;100;940.0586;;;;
2021/11/15 01:21:30;;;;;;;10.2;5.7;;;;;;;4.82;100;940.1763;;;;
2021/11/15 01:24:01;;;;;;;11.3;5.8;;;;;;;4.87;100;940.1866;;;;
2021/11/15 01:26:26;;;;;;;9.1;5.4;;;;;;;4.91;100;940.1817;;;;
2021/11/15 01:28:51;;;;;;;10.8;5.4;;;;;;;4.92;100;940.1541;;;;
2021/11/15 01:31:16;;;;;;;9.3;5.8;;;;;;;4.93;100;940.2256;;;;
2021/11/15 01:33:44;;;;;;;9.1;5.4;;;;;;;4.84;100;940.1665;;;;
2021/11/15 01:36:09;;;;;;;8.5;5.3;;;;;;;4.93;99.66797;940.1861;;;;
2021/11/15 01:38:39;;;;;;;8.4;5.2;;;;;;;4.98;98.80078;940.1895;;;;
2021/11/15 01:41:10;;;;;;;8.9;5.9;;;;;;;5.11;97.83789;940.1852;;;;
2021/11/15 01:43:41;;;;;;;7.4;5;;;;;;;4.91;97.45508;940.1769;;;;
2021/11/15 01:46:06;;;;;;;6.5;4.4;;;;;;;4.74;98.47656;940.2073;;;;
2021/11/15 01:48:31;;;;;;;6.5;4.4;;;;;;;4.77;98.40332;940.1252;;;;
2021/11/15 01:51:02;;;;;;;7.5;4.3;;;;;;;4.81;98.24316;940.1057;;;;
2021/11/15 01:53:31;;;;;;;8.1;4.7;;;;;;;4.87;97.75293;940.1228;;;;
2021/11/15 01:55:56;;;;;;;11;5.3;;;;;;;4.56;98.86035;940.0989;;;;
2021/11/15 01:58:24;;;;;;;8.4;4.8;;;;;;;4.49;99.62305;940.0602;;;;
2021/11/15 02:01:17;;;;;;;6.7;4.4;;;;;;;4.33;100;940.0392;;;;
2021/11/15 02:03:46;;;;;;;9.1;5.4;;;;;;;4.53;99.69824;940.0324;;;;
2021/11/15 02:06:12;;;;;;;15.9;5.5;;;;;;;4.46;100;940.0361;;;;
2021/11/15 02:08:36;;;;;;;9;5.5;;;;;;;4.55;99.92773;940.0851;;;;
2021/11/15 02:11:06;;;;;;;8.7;5.3;;;;;;;4.66;99.47168;940.0963;;;;
2021/11/15 02:13:31;;;;;;;10.5;5.6;;;;;;;4.76;99.07715;940.0809;;;;
2021/11/15 02:16:13;;;;;;;9.5;5.3;;;;;;;4.85;98.25391;940.1236;;;;
2021/11/15 02:18:38;;;;;;;8.5;5.4;;;;;;;4.79;98.14648;940.1014;;;;
2021/11/15 02:21:10;;;;;;;7.5;4.8;;;;;;;4.83;97.93164;940.0999;;;;
2021/11/15 02:23:40;;;;;;;7.8;4.6;;;;;;;4.73;98.25781;940.1003;;;;
2021/11/15 02:26:05;;;;;;;8.1;4.3;;;;;;;4.56;98.84961;940.0453;;;;
2021/11/15 02:28:31;;;;;;;11.2;4.8;;;;;;;4.58;98.85352;940.0183;;;;
2021/11/15 02:30:58;;;;;;;7.3;4.2;;;;;;;4.53;98.73047;940.0324;;;;
2021/11/15 02:33:23;;;;;;;6.7;4.4;;;;;;;4.42;99.11035;940.086;;;;
2021/11/15 02:35:48;;;;;;;8.2;4.7;;;;;;;4.41;99.28809;940.0282;;;;
2021/11/15 02:38:21;;;;;;;6.6;4.1;;;;;;;4.39;99.05957;940.0659;;;;
2021/11/15 02:40:48;;;;;;;6.2;4.3;;;;;;;4.25;99.74609;940.0923;;;;
2021/11/15 02:43:16;;;;;;;7.1;4.6;;;;;;;4.1;100;940.1508;;;;
2021/11/15 02:45:42;;;;;;;6.3;4.2;;;;;;;4;100;940.0506;;;;
2021/11/15 02:48:12;;;;;;;4.9;4.2;;;;;;;4.07;100;940.1967;;;;
2021/11/15 02:50:37;;;;;;;5.8;3.9;;;;;;;4.23;100;940.1349;;;;
2021/11/15 02:53:45;;;;;;;5.6;4.3;;;;;;;4.41;100;940.1284;;;;
2021/11/15 02:56:10;;;;;;;6.4;4.3;;;;;;;4.56;98.8623;940.1432;;;;
2021/11/15 02:58:39;;;;;;;8;4.4;;;;;;;4.76;97.88379;940.1683;;;;
2021/11/15 03:01:13;;;;;;;5.8;4;;;;;;;4.89;97.10156;940.173;;;;
2021/11/15 03:03:38;;;;;;;4.9;3.8;;;;;;;4.87;95.5332;940.1654;;;;
2021/11/15 03:06:03;;;;;;;6.5;4.1;;;;;;;4.59;96.52637;940.1031;;;;
2021/11/15 03:08:32;;;;;;;5.9;4;;;;;;;4.62;97.0625;940.0237;;;;
2021/11/15 03:11:00;;;;;;;6.6;4.8;;;;;;;4.61;97.24023;940.0789;;;;
2021/11/15 03:17:12;;;;;;;9.6;6.1;;;;;;;4.59;98.06934;940.1528;;;;
2021/11/15 03:19:41;;;;;;;7.8;5.9;;;;;;;4.81;97.48633;940.063;;;;
2021/11/15 03:22:12;;;;;;;6.8;5.1;;;;;;;4.88;97.13281;939.9708;;;;
2021/11/15 03:24:45;;;;;;;5.1;4.3;;;;;;;4.94;96.38086;939.998;;;;
2021/11/15 03:27:16;;;;;;;5.6;4.1;;;;;;;4.91;95.76465;940.0176;;;;
2021/11/15 03:29:44;;;;;;;4.3;3.5;;;;;;;4.98;95.17188;940.1122;;;;
2021/11/15 03:32:10;;;;;;;3.9;3.4;;;;;;;4.97;95.08008;940.0881;;;;
2021/11/15 03:34:42;;;;;;;4.2;3.3;;;;;;;4.75;95.14355;940.0559;;;;
2021/11/15 03:37:08;;;;;;;3.9;3.2;;;;;;;4.73;95.27344;940.0506;;;;
2021/11/15 03:39:37;;;;;;;4.6;3.8;;;;;;;4.38;96.36523;940.0086;;;;
2021/11/15 03:42:11;;;;;;;3.7;3.4;;;;;;;4.52;96.38672;940.055;;;;
2021/11/15 03:44:44;;;;;;;3.6;3.2;;;;;;;4.49;95.83984;940.0664;;;;
2021/11/15 03:47:13;;;;;;;3.7;3.2;;;;;;;4.24;96.40234;940.0669;;;;
2021/11/15 03:49:38;;;;;;;5.5;3.2;;;;;;;4.22;96.81445;939.9977;;;;
2021/11/15 03:52:08;;;;;;;3.5;2.8;;;;;;;4.31;96.53125;939.9503;;;;
2021/11/15 03:54:33;;;;;;;4;3.1;;;;;;;4.24;96.22168;940.0416;;;;
2021/11/15 03:56:58;;;;;;;4.5;3.3;;;;;;;4.21;96.62988;939.975;;;;
2021/11/15 03:59:24;;;;;;;3.4;2.8;;;;;;;4.04;96.93066;939.9641;;;;
2021/11/15 04:02:36;;;;;;;4.9;3.3;;;;;;;4.06;97.41797;940.0239;;;;
2021/11/15 04:05:03;;;;;;;4.8;3.3;;;;;;;4.21;97.00293;940.0516;;;;
2021/11/15 04:07:32;;;;;;;4.8;3;;;;;;;4.34;96.19922;939.9514;;;;
2021/11/15 04:09:54;;;;;;;7.1;2.9;;;;;;;4.3;96;939.9855;;;;
2021/11/15 04:12:22;;;;;;;3.2;2.8;;;;;;;4.41;95.96973;939.918;;;;
2021/11/15 04:14:53;;;;;;;3.4;2.7;;;;;;;4.34;95.41113;939.9704;;;;
2021/11/15 04:17:19;;;;;;;4.3;3.1;;;;;;;4.24;95.15332;939.9714;;;;
2021/11/15 04:19:44;;;;;;;2.9;2.6;;;;;;;4.12;95.67578;940.0316;;;;
2021/11/15 04:22:09;;;;;;;3.5;2.7;;;;;;;4.25;95.67285;940.0363;;;;
2021/11/15 04:24:39;;;;;;;3.3;2.6;;;;;;;4.39;94.88379;940.0344;;;;
2021/11/15 04:27:05;;;;;;;3.2;2.7;;;;;;;4.42;94.88965;940.0869;;;;
2021/11/15 04:29:30;;;;;;;3.3;2.6;;;;;;;4.39;94.96191;940.0684;;;;
2021/11/15 04:31:57;;;;;;;3.5;2.7;;;;;;;4.47;94.73242;940.02;;;;
2021/11/15 04:34:22;;;;;;;4.5;3;;;;;;;4.16;95.35059;939.9897;;;;
2021/11/15 04:36:54;;;;;;;4;2.8;;;;;;;4.17;95.3623;939.952;;;;
2021/11/15 04:39:24;;;;;;;5.5;3.6;;;;;;;4.11;96.01367;939.9397;;;;
2021/11/15 04:41:55;;;;;;;4.1;3.2;;;;;;;4.08;96.0498;939.9512;;;;
2021/11/15 04:44:26;;;;;;;5.3;3.6;;;;;;;4.17;96.03711;939.9395;;;;
2021/11/15 04:46:57;;;;;;;3.5;2.6;;;;;;;4.24;95.13086;939.8736;;;;
2021/11/15 04:49:22;;;;;;;5.1;3.1;;;;;;;4.24;94.81543;939.8594;;;;
2021/11/15 04:51:51;;;;;;;3.9;2.6;;;;;;;4.04;95.25488;939.8496;;;;
2021/11/15 04:54:20;;;;;;;3.7;3;;;;;;;3.89;96.27734;939.7896;;;;
2021/11/15 04:56:45;;;;;;;3.8;2.8;;;;;;;4;96.25879;939.8134;;;;
2021/11/15 04:59:15;;;;;;;3.5;2.8;;;;;;;3.86;96.58594;939.8592;;;;
2021/11/15 05:01:46;;;;;;;2.9;2.6;;;;;;;3.82;96.49902;939.7328;;;;
2021/11/15 05:04:17;;;;;;;4.9;2.7;;;;;;;3.74;96.5127;939.712;;;;
2021/11/15 05:06:46;;;;;;;4.2;2.7;;;;;;;3.63;97.16211;939.6696;;;;
2021/11/15 05:10:28;;;;;;;3.7;3;;;;;;;3.66;97.31445;939.7249;;;;
2021/11/15 05:12:53;;;;;;;5.3;2.8;;;;;;;3.33;98.3623;939.6875;;;;
2021/11/15 05:15:35;;;;;;;4.3;3.1;;;;;;;3.23;99.13672;939.7654;;;;
2021/11/15 05:18:04;;;;;;;3.9;2.9;;;;;;;3.39;98.83789;939.7182;;;;
2021/11/15 05:20:34;;;;;;;3.8;3.1;;;;;;;3.36;98.18945;939.7381;;;;
2021/11/15 05:23:00;;;;;;;4.6;3.1;;;;;;;3.15;98.84863;939.7078;;;;
2021/11/15 05:25:25;;;;;;;3.6;3.2;;;;;;;2.98;99.49219;939.6802;;;;
2021/11/15 05:27:50;;;;;;;4.6;3.5;;;;;;;2.81;100;939.7505;;;;
2021/11/15 05:30:21;;;;;;;4.1;3.3;;;;;;;2.89;100;939.7111;;;;
2021/11/15 05:32:46;;;;;;;4.5;3.3;;;;;;;2.92;100;939.7894;;;;
2021/11/15 05:35:11;;;;;;;5.1;3.3;;;;;;;2.97;99.625;939.7159;;;;
2021/11/15 05:37:37;;;;;;;6.5;3.8;;;;;;;2.94;99.86523;939.7408;;;;
2021/11/15 05:40:02;;;;;;;5.3;3.3;;;;;;;2.92;99.92676;939.6847;;;;
2021/11/15 05:42:30;;;;;;;4.1;3.3;;;;;;;3.12;99.2793;939.7285;;;;
2021/11/15 05:44:55;;;;;;;5.1;3.2;;;;;;;3.12;98.61719;939.7529;;;;
2021/11/15 05:47:23;;;;;;;4.2;3.5;;;;;;;3.31;97.88477;939.7653;;;;
2021/11/15 05:49:48;;;;;;;5.1;3.7;;;;;;;3.07;98.38086;939.8019;;;;
2021/11/15 05:52:18;;;;;;;5.2;3.8;;;;;;;3.16;98.55859;939.9015;;;;
2021/11/15 05:54:41;;;;;;;6.1;4.1;;;;;;;3.29;97.79297;939.9573;;;;
2021/11/15 05:57:08;;;;;;;5.8;4.3;;;;;;;3.36;96.90918;939.9208;;;;
2021/11/15 05:59:33;;;;;;;6.9;4;;;;;;;3.34;96.72559;939.8617;;;;
2021/11/15 06:02:03;;;;;;;6.4;3.7;;;;;;;3.36;96.63086;939.9036;;;;
2021/11/15 06:04:32;;;;;;;6.1;3.8;;;;;;;3.33;96.25195;939.9188;;;;
2021/11/15 06:06:57;;;;;;;4.2;3.6;;;;;;;3.33;96.2627;939.9203;;;;
2021/11/15 06:09:23;;;;;;;4.4;3.7;;;;;;;3.49;95.95117;939.8692;;;;
2021/11/15 06:11:48;;;;;;;5.4;3.6;;;;;;;3.55;94.98633;939.9242;;;;
2021/11/15 06:14:14;;;;;;;5.8;4;;;;;;;3.52;94.73535;940.0344;;;;
2021/11/15 06:16:40;;;;;;;7.1;4.2;;;;;;;3.61;94.18066;940.0247;;;;
2021/11/15 06:19:46;;;;;;;5.7;4;;;;;;;3.61;94.54004;940.0355;;;;
2021/11/15 06:22:14;;;;;;;6.7;3.9;;;;;;;3.51;94.60742;940.1188;;;;
2021/11/15 06:24:41;;;;;;;4.8;3.9;;;;;;;3.48;94.74805;940.0903;;;;
2021/11/15 06:27:04;;;;;;;6.6;3.7;;;;;;;3.48;95.48926;940.0895;;;;
2021/11/15 06:29:31;;;;;;;5.6;4;;;;;;;3.39;95.44434;940.1342;;;;
2021/11/15 06:31:56;;;;;;;7.9;3.9;;;;;;;3.32;95.57617;940.1678;;;;
2021/11/15 06:34:27;;;;;;;5;3.9;;;;;;;3.43;95.8584;940.1292;;;;
2021/11/15 06:36:56;;;;;;;4.8;3.7;;;;;;;3.51;95.66406;940.2126;;;;
2021/11/15 06:39:24;;;;;;;6.3;3.7;;;;;;;3.53;94.9043;940.1646;;;;
2021/11/15 06:41:47;;;;;;;5.3;4.3;;;;;;;3.44;95.40234;940.188;;;;
2021/11/15 06:44:13;;;;;;;7.9;4.7;;;;;;;3.45;95.31445;940.2356;;;;
2021/11/15 06:46:39;;;;;;;8;6.1;;;;;;;3.37;94.94824;940.302;;;;
2021/11/15 06:49:05;;;;;;;8.9;5.1;;;;;;;3.38;95.03809;940.2795;;;;
2021/11/15 06:51:30;;;;;;;6.8;5;;;;;;;3.48;95.1748;940.2919;;;;
2021/11/15 06:53:58;;;;;;;7.7;5.3;;;;;;;3.65;94.21289;940.3661;;;;
2021/11/15 06:56:23;;;;;;;8;4.5;;;;;;;3.53;94.20703;940.3212;;;;
2021/11/15 06:58:51;;;;;;;5.6;3.7;;;;;;;3.44;94.78516;940.4673;;;;
2021/11/15 07:01:17;;;;;;;5.5;3.7;;;;;;;3.64;94.35547;940.4908;;;;
2021/11/15 07:03:44;;;;;;;8.7;4.1;;;;;;;3.88;94.66797;940.5051;;;;
2021/11/15 07:06:09;;;;;;;5.8;3.8;;;;;;;4.41;93.41309;940.4933;;;;
2021/11/15 07:08:36;;;;;;;5.9;3.6;;;;;;;5.1;90.06836;940.4469;;;;
2021/11/15 07:11:01;;;;;;;7.5;3;;;;;;;5.68;87.63867;940.5075;;;;
2021/11/15 07:13:29;;;;;;;4.4;3.1;;;;;;;6.19;85.12207;940.5444;;;;
2021/11/15 07:15:58;;;;;;;4.4;3.8;;;;;;;6.78;81.97949;940.5967;;;;
2021/11/15 07:18:26;;;;;;;4;3.6;;;;;;;7.54;77.01172;940.6429;;;;
2021/11/15 07:20:48;;;;;;;5.6;3.5;;;;;;;7.85;75.52441;940.5439;;;;
2021/11/15 07:23:16;;;;;;;6.8;4;;;;;;;8.75;71.62207;940.5535;;;;
2021/11/15 07:25:41;;;;;;;7.4;3.5;;;;;;;9.51;69.23242;940.5663;;;;
2021/11/15 07:28:07;;;;;;;8;5.2;;;;;;;9.49;67.95215;940.4833;;;;
2021/11/15 07:30:34;;;;;;;7.9;5.1;;;;;;;10.53;65.70801;940.4631;;;;
2021/11/15 07:33:06;;;;;;;8.7;4.4;;;;;;;11.29;61.4541;940.5623;;;;
2021/11/15 07:35:34;;;;;;;7.7;4.4;;;;;;;11.78;60.65332;940.5773;;;;
2021/11/15 07:37:59;;;;;;;6.2;3.6;;;;;;;12.19;58.13184;940.49;;;;
2021/11/15 07:40:29;;;;;;;4.8;3.4;;;;;;;11.65;61.04785;940.5009;;;;
2021/11/15 07:42:54;;;;;;;5.5;3.3;;;;;;;12.36;59.66699;940.5073;;;;
2021/11/15 07:45:21;;;;;;;4.9;3;;;;;;;12.91;56.36914;940.4846;;;;
2021/11/15 07:47:46;;;;;;;5.8;2.7;;;;;;;12.5;57.66895;940.5069;;;;
2021/11/15 07:50:17;;;;;;;6.2;3;;;;;;;13.04;55.43262;940.5086;;;;
2021/11/15 07:52:42;;;;;;;4;3.1;;;;;;;12.49;57.54102;940.5803;;;;
2021/11/15 07:55:12;;;;;;;6;2.5;;;;;;;12.19;58.54395;940.5746;;;;
2021/11/15 07:57:41;;;;;;;3.5;1.9;;;;;;;12.28;58.64746;940.4877;;;;
2021/11/15 08:00:04;;;;;;;3.2;2.5;;;;;;;12.13;58.37598;940.4497;;;;
2021/11/15 08:02:29;;;;;;;4;2.8;;;;;;;14.57;52.84961;940.4136;;;;
2021/11/15 08:04:59;;;;;;;3.1;2.3;;;;;;;16.03;48.77148;940.5145;;;;
2021/11/15 08:07:24;;;;;;;2.4;2.1;;;;;;;17.61;44.41016;940.4495;;;;
2021/11/15 08:09:51;;;;;;;5.1;2.2;;;;;;;19.04;40.96875;940.3976;;;;
2021/11/15 08:12:20;;;;;;;2.6;2.1;;;;;;;19.37;39.82227;940.3381;;;;
2021/11/15 08:14:45;;;;;;;4.1;2.5;;;;;;;19.7;39.77051;940.2444;;;;
2021/11/15 08:18:10;;;;;;;3.8;2.8;;;;;;;20.53;38.03418;940.2411;;;;
2021/11/15 08:20:18;;;;;;;4.6;2.7;;;;;;;20.09;37.64648;940.3816;;;;
2021/11/15 08:22:45;;;;;;;2.8;2.5;;;;;;;20.95;37.28809;940.3028;;;;
2021/11/15 08:25:09;;;;;;;3.2;2.4;;;;;;;19.68;38.89453;940.3797;;;;
2021/11/15 08:27:34;;;;;;;2.9;2.5;;;;;;;20.28;38.07227;940.3391;;;;
2021/11/15 08:29:59;;;;;;;3.5;2.5;;;;;;;19.68;38.56836;940.2853;;;;
2021/11/15 08:32:28;;;;;;;2.8;2.5;;;;;;;19.63;39.06445;940.3309;;;;
2021/11/15 08:34:55;;;;;;;3.1;2.7;;;;;;;19.9;38.76172;940.3995;;;;
2021/11/15 08:37:22;;;;;;;2.6;2.4;;;;;;;19.8;38.82422;940.3455;;;;
2021/11/15 08:40:20;;;;;;;4.9;2.5;;;;;;;16.84;43.77637;940.3514;;;;
2021/11/15 08:42:48;;;;;;;4.6;3;;;;;;;16.07;46.40527;940.3303;;;;
2021/11/15 08:45:15;;;;;;;4.6;2.7;;;;;;;15.01;49.33789;940.4055;;;;
2021/11/15 08:47:42;;;;;;;4.3;2.8;;;;;;;12.38;57.12402;940.3046;;;;
2021/11/15 08:50:08;;;;;;;4.1;3.1;;;;;;;11.83;61.00391;940.3834;;;;
2021/11/15 08:52:35;;;;;;;3.6;2.9;;;;;;;10.53;66.0957;940.4026;;;;
2021/11/15 08:55:01;;;;;;;3;2.7;;;;;;;10.29;67.4834;940.3569;;;;
2021/11/15 08:57:27;;;;;;;3.8;2.8;;;;;;;10;69.6748;940.313;;;;
2021/11/15 08:59:55;;;;;;;3.4;2.8;;;;;;;9.64;70.6543;940.2364;;;;
2021/11/15 09:02:22;;;;;;;3.3;3;;;;;;;9.4;72.8916;940.2366;;;;
2021/11/15 09:04:47;;;;;;;2.9;2.7;;;;;;;9.28;73.22559;940.2411;;;;
2021/11/15 09:07:14;;;;;;;4.3;3;;;;;;;9.26;72.94824;940.2795;;;;
2021/11/15 09:09:39;;;;;;;4.9;3.3;;;;;;;8.74;76.12305;940.3644;;;;
2021/11/15 09:12:06;;;;;;;3.5;3.1;;;;;;;8.87;76.54492;940.2774;;;;
2021/11/15 09:14:34;;;;;;;4.4;3.2;;;;;;;8.92;76.92969;940.3356;;;;
2021/11/15 09:16:59;;;;;;;3.6;2.9;;;;;;;8.81;77.4209;940.2899;;;;
2021/11/15 09:19:26;;;;;;;3.8;3;;;;;;;8.71;77.78906;940.1891;;;;
2021/11/15 09:21:51;;;;;;;7;3.2;;;;;;;8.52;78.44824;940.2906;;;;
2021/11/15 09:24:19;;;;;;;3.8;3;;;;;;;8.38;78.79883;940.313;;;;
2021/11/15 09:26:44;;;;;;;4.2;3.1;;;;;;;8.2;79.66113;940.3633;;;;
2021/11/15 09:29:13;;;;;;;3.7;3;;;;;;;8.18;79.16895;940.3675;;;;
2021/11/15 09:31:38;;;;;;;4.2;2.7;;;;;;;8.33;78.44824;940.3909;;;;
2021/11/15 09:34:06;;;;;;;2.9;2.6;;;;;;;8.34;78.5293;940.3091;;;;
2021/11/15 09:36:31;;;;;;;4.5;2.7;;;;;;;8.32;78.00293;940.2692;;;;
2021/11/15 09:39:00;;;;;;;3.4;2.7;;;;;;;8.3;80.21484;940.3594;;;;
2021/11/15 09:41:25;;;;;;;3.6;2.8;;;;;;;8.44;79.66113;940.2787;;;;
2021/11/15 09:43:52;;;;;;;3.2;2.9;;;;;;;8.48;79.71484;940.14;;;;
2021/11/15 09:46:17;;;;;;;2.9;2.6;;;;;;;8.16;81.00684;940.2394;;;;
2021/11/15 09:48:46;;;;;;;3.9;3;;;;;;;8.14;81.42188;940.2971;;;;
2021/11/15 09:51:12;;;;;;;3.1;2.5;;;;;;;8.11;81.99414;940.381;;;;
2021/11/15 09:53:41;;;;;;;4.3;2.6;;;;;;;8.24;81.35059;940.3161;;;;
2021/11/15 09:56:06;;;;;;;3.7;3;;;;;;;8.29;81.36035;940.3298;;;;
2021/11/15 09:58:35;;;;;;;4.2;3;;;;;;;8.42;80.66895;940.337;;;;
2021/11/15 10:01:08;;;;;;;3.6;2.9;;;;;;;8.61;80.75098;940.2786;;;;
2021/11/15 10:03:37;;;;;;;3.3;2.9;;;;;;;8.55;80.8623;940.2969;;;;
2021/11/15 10:06:02;;;;;;;4;3.1;;;;;;;8.72;81.88574;940.2917;;;;
2021/11/15 10:08:30;;;;;;;3.3;2.7;;;;;;;8.81;80.37695;940.2453;;;;
2021/11/15 10:11:03;;;;;;;3.5;2.8;;;;;;;8.78;79.83789;940.3113;;;;
2021/11/15 10:13:34;;;;;;;3.3;2.6;;;;;;;8.66;80.45313;940.3812;;;;
2021/11/15 10:15:59;;;;;;;4.7;3.3;;;;;;;8.66;80.71387;940.2787;;;;
2021/11/15 10:18:27;;;;;;;4.1;3.2;;;;;;;8.72;80.11035;940.2845;;;;
2021/11/15 10:20:55;;;;;;;2.7;2.4;;;;;;;8.54;80.49902;940.2745;;;;
2021/11/15 10:23:24;;;;;;;3.8;3;;;;;;;8.32;82.9668;940.3058;;;;
2021/11/15 10:25:59;;;;;;;4.1;3.3;;;;;;;8.53;81.43848;940.2924;;;;
2021/11/15 10:28:20;;;;;;;4.2;3.1;;;;;;;8.73;80.8623;940.3373;;;;
2021/11/15 10:30:50;;;;;;;4.3;3.4;;;;;;;8.84;81.20117;940.2967;;;;
2021/11/15 10:33:20;;;;;;;5;3.5;;;;;;;8.82;80.79004;940.348;;;;
2021/11/15 10:35:45;;;;;;;4.5;3.6;;;;;;;8.91;79.19238;940.2386;;;;
2021/11/15 10:38:14;;;;;;;5.1;3.6;;;;;;;9.06;79.66211;940.3028;;;;
2021/11/15 10:40:41;;;;;;;4.3;3.6;;;;;;;9.01;79.01465;940.2733;;;;
2021/11/15 10:43:06;;;;;;;5.3;3.8;;;;;;;9.01;80.20996;940.2597;;;;
2021/11/15 10:45:35;;;;;;;6.9;4.6;;;;;;;9.16;80.95508;940.1234;;;;
2021/11/15 10:48:00;;;;;;;6.4;4.3;;;;;;;9.26;80.3252;940.0436;;;;
2021/11/15 10:50:30;;;;;;;6.4;4.5;;;;;;;9.33;80.70313;940.0806;;;;
2021/11/15 10:52:54;;;;;;;4.6;3.7;;;;;;;9.35;79.72656;940.0967;;;;
2021/11/15 10:55:22;;;;;;;5.3;3.9;;;;;;;9.36;77.94141;940.1383;;;;
2021/11/15 10:57:48;;;;;;;6.7;4.5;;;;;;;9.14;78.0498;940.0619;;;;
2021/11/15 11:00:13;;;;;;;6.5;4.7;;;;;;;9.15;79.00781;940.0851;;;;
2021/11/15 11:02:40;;;;;;;7.8;5.1;;;;;;;9.18;79.24023;939.9981;;;;
2021/11/15 11:05:05;;;;;;;7.9;4.9;;;;;;;9.14;79.31348;939.938;;;;
2021/11/15 11:07:30;;;;;;;6.5;5;;;;;;;8.84;80.30273;940.0656;;;;
2021/11/15 11:09:58;;;;;;;7.4;5.2;;;;;;;8.97;81.19238;940.0617;;;;
2021/11/15 11:12:29;;;;;;;8.1;5.3;;;;;;;8.9;81.52051;940.1192;;;;
2021/11/15 11:14:50;;;;;;;7.9;5.5;;;;;;;8.96;81.53027;940.1433;;;;
2021/11/15 11:17:14;;;;;;;8.9;5.8;;;;;;;9.09;81.47656;940.2111;;;;
2021/11/15 11:19:47;;;;;;;9.6;5.5;;;;;;;9.1;81.37793;940.2026;;;;
2021/11/15 11:22:26;;;;;;;8;5.6;;;;;;;9.26;80.71191;940.2153;;;;
2021/11/15 11:24:44;;;;;;;7.9;5.5;;;;;;;9.05;81.40137;940.1588;;;;
2021/11/15 11:26:56;;;;;;;7.9;5.8;;;;;;;9.13;80.80273;940.1626;;;;
2021/11/15 11:29:22;;;;;;;7.9;5.6;;;;;;;8.99;81.17383;940.205;;;;
2021/11/15 11:31:45;;;;;;;11;6.3;;;;;;;8.73;82.23828;940.2156;;;;
2021/11/15 11:34:10;;;;;;;9.2;6.3;;;;;;;8.44;83.59375;940.1995;;;;
2021/11/15 11:36:35;;;;;;;8.4;6.2;;;;;;;8.34;83.26563;940.2065;;;;
2021/11/15 11:39:02;;;;;;;9.5;6.4;;;;;;;8.3;84.04297;940.1975;;;;
2021/11/15 11:41:26;;;;;;;10;6;;;;;;;8.49;83.56836;940.1799;;;;
2021/11/15 11:43:55;;;;;;;8;6;;;;;;;8.53;83.33887;940.1917;;;;
2021/11/15 11:46:22;;;;;;;8.5;6.1;;;;;;;8.57;82.98047;940.286;;;;
2021/11/15 11:48:48;;;;;;;8;5.9;;;;;;;8.37;83.72754;940.1208;;;;
2021/11/15 11:51:13;;;;;;;8.9;6.6;;;;;;;8.43;83.99902;940.1183;;;;
2021/11/15 11:53:38;;;;;;;9.2;6.3;;;;;;;8.48;83.38477;940.1305;;;;
2021/11/15 11:56:04;;;;;;;8.9;6.2;;;;;;;8.33;83.8877;940.1188;;;;
2021/11/15 11:58:29;;;;;;;10;6.8;;;;;;;8.42;84.15625;940.0862;;;;
2021/11/15 12:00:56;;;;;;;10.2;6.6;;;;;;;8.51;83.54883;940.1928;;;;
2021/11/15 12:03:22;;;;;;;9.3;6.8;;;;;;;8.5;82.97949;940.1689;;;;
2021/11/15 12:05:53;;;;;;;8.7;6.6;;;;;;;8.32;83.81934;940.1264;;;;
2021/11/15 12:08:18;;;;;;;9.5;6.8;;;;;;;8.19;84.37402;940.0189;;;;
2021/11/15 12:10:43;;;;;;;8.6;5.8;;;;;;;8.32;84.31934;940.0305;;;;
2021/11/15 12:13:12;;;;;;;9.6;6.7;;;;;;;8.08;85.01074;940.0435;;;;
2021/11/15 12:15:44;;;;;;;11.4;7.3;;;;;;;8.1;85.41016;940.0628;;;;
2021/11/15 12:18:09;;;;;;;9.6;6.5;;;;;;;8.13;85.09766;940.0421;;;;
2021/11/15 12:20:36;;;;;;;9;6.4;;;;;;;8.37;84.58887;940.05;;;;
2021/11/15 12:23:04;;;;;;;9.3;6.6;;;;;;;8.28;84.33496;940.0193;;;;
2021/11/15 12:25:35;;;;;;;10.7;6.7;;;;;;;8.4;84.69629;940.0062;;;;
2021/11/15 12:28:01;;;;;;;8.8;6.8;;;;;;;8.56;83.37598;939.8978;;;;
2021/11/15 12:30:34;;;;;;;10.2;7.3;;;;;;;8.51;83.60742;939.9152;;;;
2021/11/15 12:32:58;;;;;;;10.2;7.1;;;;;;;8.61;83.6709;939.8491;;;;
2021/11/15 12:35:25;;;;;;;10.6;7.4;;;;;;;8.85;83.02441;939.8467;;;;
2021/11/15 12:37:51;;;;;;;10.5;7;;;;;;;8.97;81.68164;939.868;;;;
2021/11/15 12:40:21;;;;;;;10.3;7.3;;;;;;;8.78;82.25977;939.8833;;;;
2021/11/15 12:42:46;;;;;;;9;6.6;;;;;;;8.55;82.74902;939.9405;;;;
2021/11/15 12:45:13;;;;;;;10.7;7.2;;;;;;;8.55;83.74902;939.8969;;;;
2021/11/15 12:47:42;;;;;;;11.6;7.5;;;;;;;8.69;84.2002;939.8912;;;;
2021/11/15 12:50:07;;;;;;;11.8;6.9;;;;;;;9.03;82.39941;939.8582;;;;
2021/11/15 12:52:36;;;;;;;9.3;6.7;;;;;;;9.04;81.125;939.8423;;;;
2021/11/15 12:55:00;;;;;;;8.6;6.1;;;;;;;9.16;81.70605;939.8381;;;;
2021/11/15 12:57:25;;;;;;;9.4;6.5;;;;;;;9.25;81.34668;939.8773;;;;
2021/11/15 12:59:51;;;;;;;10.5;6.8;;;;;;;9.14;80.78125;939.8784;;;;
2021/11/15 13:02:16;;;;;;;11.2;6.9;;;;;;;9.06;81.91309;939.7967;;;;
2021/11/15 13:04:41;;;;;;;11.3;6.9;;;;;;;9.06;81.86816;939.8698;;;;
2021/11/15 13:07:07;;;;;;;10.4;6.8;;;;;;;8.74;83.48145;939.827;;;;
2021/11/15 13:09:34;;;;;;;10.5;7.1;;;;;;;8.72;83.31836;939.8862;;;;
2021/11/15 13:15:26;;;;;;;9.5;6.3;;;;;;;8.59;83.37012;939.8325;;;;
2021/11/15 13:17:17;;;;;;;10.4;6.9;;;;;;;8.32;84.50098;939.8957;;;;
2021/11/15 13:19:44;;;;;;;9.7;6.8;;;;;;;8.39;84.83301;939.8775;;;;
2021/11/15 13:22:10;;;;;;;9.8;7;;;;;;;8.52;84.27832;939.8787;;;;
2021/11/15 13:24:35;;;;;;;9.5;6.3;;;;;;;8.57;84.07129;939.8114;;;;
2021/11/15 13:27:05;;;;;;;10.2;7.2;;;;;;;8.54;84.68164;939.7181;;;;
2021/11/15 13:29:30;;;;;;;10.7;7.1;;;;;;;8.43;84.88574;939.7057;;;;
2021/11/15 13:32:01;;;;;;;10.3;7;;;;;;;8.45;84.67285;939.7385;;;;
2021/11/15 13:34:26;;;;;;;9.1;6.7;;;;;;;8.6;84.82813;939.6755;;;;
2021/11/15 13:36:51;;;;;;;8.9;6.4;;;;;;;8.64;84.20996;939.6479;;;;
2021/11/15 13:39:17;;;;;;;9.8;6.7;;;;;;;8.76;83.94922;939.6518;;;;
2021/11/15 13:41:42;;;;;;;9.2;6.8;;;;;;;;;;;;;
2021/11/15 13:44:07;;;;;;;9.1;6.7;;;;;;;;;;;;;
2021/11/15 13:46:32;;;;;;;9.6;6.6;;;;;;;;;;;;;
2021/11/15 13:48:57;;;;;;;9.8;6.7;;;;;;;;;;;;;
2021/11/15 13:51:22;;;;;;;10.3;7.3;;;;;;;;;;;;;
2021/11/15 13:53:48;;;;;;;11.2;8.1;;;;;;;;;;;;;
2021/11/15 13:56:13;;;;;;;10.2;7.1;;;;;;;;;;;;;
2021/11/15 13:58:40;;;;;;;10;7.1;;;;;;;;;;;;;
2021/11/15 14:01:05;;;;;;;9.7;7.3;;;;;;;;;;;;;
2021/11/15 14:03:32;;;;;;;9.7;7.1;;;;;;;;;;;;;
2021/11/15 14:05:57;;;;;;;10.4;7.5;;;;;;;;;;;;;
2021/11/15 14:08:22;;;;;;;10.5;7;;;;;;;;;;;;;
2021/11/15 14:10:47;;;;;;;10;7;;;;;;;;;;;;;
2021/11/15 14:13:14;;;;;;;10.5;7.3;;;;;;;;;;;;;
2021/11/15 14:15:39;;;;;;;9.9;7.5;;;;;;;;;;;;;
2021/11/15 14:18:05;;;;;;;10.4;7;;;;;;;;;;;;;
2021/11/15 14:20:30;;;;;;;11.1;7.6;;;;;;;;;;;;;
2021/11/15 14:22:56;;;;;;;13.1;8;;;;;;;;;;;;;
2021/11/15 14:25:21;;;;;;;11.9;7.8;;;;;;;;;;;;;
2021/11/15 14:27:48;;;;;;;13.6;8.2;;;;;;;;;;;;;
2021/11/15 14:30:13;;;;;;;11.9;8;;;;;;;;;;;;;
2021/11/15 14:32:38;;;;;;;10.9;7.9;;;;;;;;;;;;;
2021/11/15 14:35:03;;;;;;;13.8;8.6;;;;;;;;;;;;;
2021/11/15 14:37:29;;;;;;;12.6;8.3;;;;;;;;;;;;;
2021/11/15 14:39:54;;;;;;;12.3;7.9;;;;;;;;;;;;;
2021/11/15 14:42:21;;;;;;;10.8;7.6;;;;;;;;;;;;;
2021/11/15 14:44:46;;;;;;;11.3;8;;;;;;;;;;;;;
2021/11/15 14:47:10;;;;;;;13.3;8.5;;;;;;;;;;;;;
2021/11/15 14:49:36;;;;;;;11.7;8.7;;;;;;;;;;;;;
2021/11/15 14:52:01;;;;;;;11.7;8.8;;;;;;;;;;;;;
2021/11/15 14:54:27;;;;;;;12.4;8;;;;;;;;;;;;;
2021/11/15 14:56:51;;;;;;;13.9;8.3;;;;;;;;;;;;;
2021/11/15 14:59:17;;;;;;;11.5;8.3;;;;;;;;;;;;;
2021/11/15 15:01:42;;;;;;;10.4;8.2;;;;;;;;;;;;;
2021/11/15 15:04:09;;;;;;;13;8.2;;;;;;;;;;;;;
2021/11/15 15:06:34;;;;;;;12.8;8.4;;;;;;;;;;;;;
2021/11/15 15:09:00;;;;;;;10.2;7.8;;;;;;;;;;;;;
2021/11/15 15:11:24;;;;;;;10.5;7.3;;;;;;;;;;;;;
2021/11/15 15:13:52;;;;;;;15.7;7.4;;;;;;;;;;;;;
2021/11/15 15:16:16;;;;;;;10.3;7;;;;;;;;;;;;;
2021/11/15 15:18:42;;;;;;;9.9;7.3;;;;;;;;;;;;;
2021/11/15 15:21:08;;;;;;;10.3;7.4;;;;;;;;;;;;;
2021/11/15 15:23:37;;;;;;;8.9;6.9;;;;;;;;;;;;;
2021/11/15 15:26:02;;;;;;;11.2;7.7;;;;;;;;;;;;;
2021/11/15 15:28:28;;;;;;;9.9;6.9;;;;;;;;;;;;;
2021/11/15 15:30:52;;;;;;;9.6;6.8;;;;;;;;;;;;;
2021/11/15 15:33:18;;;;;;;8.4;6.4;;;;;;;;;;;;;